createdAt,value
2017-06-16T00:00:53.950Z,41.7
2017-06-16T00:01:54.741Z,41.6
2017-06-16T00:02:55.683Z,41.6
2017-06-16T00:03:56.414Z,41.6
2017-06-16T00:04:57.127Z,41.6
2017-06-16T00:05:57.821Z,41.9
2017-06-16T00:06:58.702Z,41.5
2017-06-16T00:07:59.400Z,41.6
2017-06-16T00:09:00.083Z,41.6
2017-06-16T00:10:01.326Z,41.6
2017-06-16T00:11:02.016Z,41.6
2017-06-16T00:12:02.906Z,41.5
2017-06-16T00:13:03.595Z,41.9
2017-06-16T00:14:04.285Z,41.5
2017-06-16T00:15:05.038Z,41.6
2017-06-16T00:16:05.971Z,41.9
2017-06-16T00:17:06.649Z,41.4
2017-06-16T00:18:07.341Z,42.0
2017-06-16T00:19:08.015Z,41.3
2017-06-16T00:20:08.713Z,41.3
2017-06-16T00:21:09.405Z,42.0
2017-06-16T00:22:10.350Z,41.5
2017-06-16T00:23:11.284Z,41.4
2017-06-16T00:24:11.973Z,41.9
2017-06-16T00:25:12.663Z,41.3
2017-06-16T00:26:13.396Z,41.9
2017-06-16T00:27:14.130Z,41.5
2017-06-16T00:28:14.838Z,41.4
2017-06-16T00:29:15.766Z,41.7
2017-06-16T00:30:16.452Z,41.8
2017-06-16T00:31:17.137Z,41.5
2017-06-16T00:32:17.829Z,41.6
2017-06-16T00:33:18.512Z,41.9
2017-06-16T00:34:19.245Z,41.7
2017-06-16T00:35:20.183Z,42.1
2017-06-16T00:36:20.897Z,41.6
2017-06-16T00:37:21.589Z,41.8
2017-06-16T00:38:22.269Z,41.7
2017-06-16T00:39:23.164Z,42.2
2017-06-16T00:40:23.853Z,42.0
2017-06-16T00:41:24.832Z,41.7
2017-06-16T00:42:25.532Z,42.0
2017-06-16T00:43:26.208Z,41.9
2017-06-16T00:44:27.050Z,41.7
2017-06-16T00:45:27.734Z,41.6
2017-06-16T00:46:28.424Z,41.5
2017-06-16T00:47:29.378Z,41.6
2017-06-16T00:48:30.061Z,41.7
2017-06-16T00:49:30.837Z,41.6
2017-06-16T00:50:31.533Z,41.6
2017-06-16T00:51:32.221Z,41.9
2017-06-16T00:52:32.949Z,42.0
2017-06-16T00:53:33.646Z,42.4
2017-06-16T00:54:34.675Z,42.4
2017-06-16T00:55:35.358Z,41.9
2017-06-16T00:56:36.120Z,41.7
2017-06-16T00:57:36.788Z,41.9
2017-06-16T00:58:37.527Z,42.2
2017-06-16T00:59:38.416Z,41.9
2017-06-16T01:00:39.349Z,42.0
2017-06-16T01:01:40.045Z,41.7
2017-06-16T01:02:40.783Z,42.0
2017-06-16T01:03:41.524Z,42.0
2017-06-16T01:04:42.359Z,42.1
2017-06-16T01:05:43.048Z,42.3
2017-06-16T01:06:44.082Z,42.1
2017-06-16T01:07:45.071Z,41.5
2017-06-16T01:08:45.823Z,42.5
2017-06-16T01:09:46.716Z,42.2
2017-06-16T01:10:47.408Z,42.1
2017-06-16T01:11:48.095Z,42.1
2017-06-16T01:12:49.028Z,42.2
2017-06-16T01:13:49.771Z,41.6
2017-06-16T01:14:50.557Z,42.2
2017-06-16T01:15:51.259Z,42.0
2017-06-16T01:16:51.941Z,42.4
2017-06-16T01:17:52.630Z,42.1
2017-06-16T01:18:53.632Z,42.3
2017-06-16T01:19:54.457Z,42.4
2017-06-16T01:20:55.196Z,42.4
2017-06-16T01:21:55.900Z,42.4
2017-06-16T01:22:56.588Z,42.7
2017-06-16T01:23:57.307Z,42.8
2017-06-16T01:24:58.252Z,42.2
2017-06-16T01:25:59.078Z,42.3
2017-06-16T01:26:59.832Z,42.1
2017-06-16T01:28:00.579Z,42.6
2017-06-16T01:29:01.269Z,42.4
2017-06-16T01:30:01.962Z,42.1
2017-06-16T01:31:02.942Z,42.4
2017-06-16T01:32:03.640Z,42.3
2017-06-16T01:33:04.622Z,42.1
2017-06-16T01:34:05.321Z,42.0
2017-06-16T01:35:05.997Z,42.2
2017-06-16T01:36:06.739Z,42.5
2017-06-16T01:37:07.790Z,42.2
2017-06-16T01:38:08.472Z,42.3
2017-06-16T01:39:09.159Z,42.2
2017-06-16T01:40:09.852Z,42.3
2017-06-16T01:41:10.540Z,42.3
2017-06-16T01:42:11.328Z,42.8
2017-06-16T01:43:12.307Z,42.1
2017-06-16T01:44:13.011Z,42.0
2017-06-16T01:45:13.755Z,41.9
2017-06-16T01:46:14.438Z,42.6
2017-06-16T01:47:15.230Z,42.1
2017-06-16T01:48:15.901Z,42.8
2017-06-16T01:49:16.897Z,42.1
2017-06-16T01:50:17.584Z,42.0
2017-06-16T01:51:18.266Z,42.1
2017-06-16T01:52:19.217Z,42.7
2017-06-16T01:53:19.912Z,41.9
2017-06-16T01:54:20.642Z,42.2
2017-06-16T01:55:21.652Z,42.4
2017-06-16T01:56:22.381Z,42.4
2017-06-16T01:57:23.108Z,42.4
2017-06-16T01:58:23.866Z,42.9
2017-06-16T01:59:24.543Z,42.1
2017-06-16T02:00:25.282Z,42.2
2017-06-16T02:01:26.281Z,42.0
2017-06-16T02:02:26.975Z,42.4
2017-06-16T02:03:27.663Z,42.1
2017-06-16T02:04:28.365Z,42.2
2017-06-16T02:05:29.041Z,42.1
2017-06-16T02:06:29.785Z,42.1
2017-06-16T02:07:30.486Z,42.1
2017-06-16T02:08:31.710Z,42.5
2017-06-16T02:09:32.427Z,42.4
2017-06-16T02:10:33.101Z,42.3
2017-06-16T02:11:33.781Z,42.4
2017-06-16T02:12:34.536Z,42.4
2017-06-16T02:13:35.235Z,42.3
2017-06-16T02:14:36.179Z,42.4
2017-06-16T02:15:36.909Z,42.7
2017-06-16T02:16:37.893Z,42.1
2017-06-16T02:17:38.586Z,42.8
2017-06-16T02:18:39.320Z,42.0
2017-06-16T02:19:40.009Z,42.8
2017-06-16T02:20:41.022Z,42.1
2017-06-16T02:21:41.739Z,42.5
2017-06-16T02:22:42.535Z,42.4
2017-06-16T02:23:43.296Z,42.3
2017-06-16T02:24:43.962Z,42.1
2017-06-16T02:25:44.641Z,43.1
2017-06-16T02:26:45.623Z,42.3
2017-06-16T02:27:46.367Z,42.5
2017-06-16T02:28:47.110Z,42.3
2017-06-16T02:29:47.802Z,42.1
2017-06-16T02:30:48.564Z,42.8
2017-06-16T02:31:49.248Z,42.2
2017-06-16T02:32:50.339Z,43.2
2017-06-16T02:33:51.019Z,42.8
2017-06-16T02:34:51.713Z,42.2
2017-06-16T02:35:52.418Z,42.8
2017-06-16T02:36:53.104Z,42.7
2017-06-16T02:37:53.791Z,42.6
2017-06-16T02:38:54.501Z,42.3
2017-06-16T02:39:55.543Z,42.7
2017-06-16T02:40:56.236Z,42.6
2017-06-16T02:41:56.974Z,42.9
2017-06-16T02:42:57.815Z,42.9
2017-06-16T02:43:58.488Z,42.6
2017-06-16T02:44:59.236Z,42.1
2017-06-16T02:46:00.229Z,41.9
2017-06-16T02:47:00.961Z,42.1
2017-06-16T02:48:01.765Z,42.5
2017-06-16T02:49:02.458Z,42.9
2017-06-16T02:50:03.134Z,42.8
2017-06-16T02:51:03.823Z,42.5
2017-06-16T02:52:04.877Z,42.9
2017-06-16T02:53:05.606Z,42.7
2017-06-16T02:54:06.298Z,42.5
2017-06-16T02:55:06.982Z,42.6
2017-06-16T02:56:07.668Z,42.9
2017-06-16T02:57:08.355Z,42.7
2017-06-16T02:58:09.349Z,42.7
2017-06-16T02:59:10.085Z,42.7
2017-06-16T03:00:10.774Z,42.7
2017-06-16T03:01:11.484Z,42.7
2017-06-16T03:02:12.155Z,42.6
2017-06-16T03:03:12.840Z,42.7
2017-06-16T03:04:13.833Z,43.0
2017-06-16T03:05:14.530Z,42.5
2017-06-16T03:06:15.224Z,42.7
2017-06-16T03:07:15.932Z,42.5
2017-06-16T03:08:16.664Z,42.7
2017-06-16T03:09:17.334Z,42.5
2017-06-16T03:10:18.423Z,42.7
2017-06-16T03:11:19.169Z,42.8
2017-06-16T03:12:19.897Z,42.5
2017-06-16T03:13:20.558Z,42.8
2017-06-16T03:14:21.251Z,42.5
2017-06-16T03:15:22.038Z,42.9
2017-06-16T03:16:23.030Z,42.5
2017-06-16T03:17:23.722Z,42.6
2017-06-16T03:18:24.462Z,42.6
2017-06-16T03:19:25.158Z,42.4
2017-06-16T03:20:25.944Z,42.6
2017-06-16T03:21:26.641Z,42.5
2017-06-16T03:22:27.645Z,42.7
2017-06-16T03:23:28.327Z,42.7
2017-06-16T03:24:29.074Z,42.6
2017-06-16T03:25:29.814Z,42.6
2017-06-16T03:26:30.509Z,43.1
2017-06-16T03:27:31.187Z,42.7
2017-06-16T03:28:32.202Z,42.9
2017-06-16T03:29:32.889Z,42.7
2017-06-16T03:30:33.838Z,42.7
2017-06-16T03:31:34.522Z,42.9
2017-06-16T03:32:35.263Z,42.5
2017-06-16T03:33:35.962Z,42.5
2017-06-16T03:34:36.894Z,42.7
2017-06-16T03:35:37.952Z,42.9
2017-06-16T03:36:38.690Z,42.8
2017-06-16T03:37:39.379Z,42.9
2017-06-16T03:38:40.085Z,42.9
2017-06-16T03:39:40.797Z,42.8
2017-06-16T03:40:41.822Z,43.2
2017-06-16T03:41:42.511Z,42.5
2017-06-16T03:42:43.194Z,42.6
2017-06-16T03:43:43.941Z,42.5
2017-06-16T03:44:44.628Z,42.7
2017-06-16T03:45:45.579Z,42.8
2017-06-16T03:46:46.567Z,42.7
2017-06-16T03:47:47.276Z,42.7
2017-06-16T03:48:47.964Z,42.9
2017-06-16T03:49:48.653Z,42.6
2017-06-16T03:50:49.390Z,43.4
2017-06-16T03:51:50.129Z,42.7
2017-06-16T03:52:50.821Z,42.6
2017-06-16T03:53:51.818Z,42.5
2017-06-16T03:54:52.502Z,42.7
2017-06-16T03:55:53.505Z,42.7
2017-06-16T03:56:54.264Z,43.0
2017-06-16T03:57:54.981Z,42.4
2017-06-16T03:58:55.720Z,42.7
2017-06-16T03:59:56.764Z,43.0
2017-06-16T04:00:57.578Z,42.5
2017-06-16T04:01:58.263Z,42.7
2017-06-16T04:02:59.001Z,42.7
2017-06-16T04:03:59.685Z,42.6
2017-06-16T04:05:00.382Z,42.5
2017-06-16T04:06:01.373Z,42.5
2017-06-16T04:07:02.110Z,43.0
2017-06-16T04:08:03.124Z,42.7
2017-06-16T04:09:03.867Z,42.6
2017-06-16T04:10:04.605Z,42.8
2017-06-16T04:11:05.345Z,42.4
2017-06-16T04:12:06.386Z,42.7
2017-06-16T04:13:07.087Z,43.2
2017-06-16T04:14:07.773Z,42.6
2017-06-16T04:15:08.545Z,42.6
2017-06-16T04:16:09.262Z,42.8
2017-06-16T04:17:09.987Z,42.0
2017-06-16T04:18:11.034Z,42.7
2017-06-16T04:19:11.724Z,42.5
2017-06-16T04:20:12.428Z,42.6
2017-06-16T04:21:13.153Z,42.2
2017-06-16T04:22:13.899Z,42.2
2017-06-16T04:23:14.591Z,42.3
2017-06-16T04:24:15.640Z,42.5
2017-06-16T04:25:16.321Z,42.5
2017-06-16T04:26:17.023Z,42.5
2017-06-16T04:27:17.720Z,42.7
2017-06-16T04:28:18.487Z,42.7
2017-06-16T04:29:19.205Z,42.5
2017-06-16T04:30:20.266Z,42.7
2017-06-16T04:31:20.988Z,42.3
2017-06-16T04:32:21.681Z,42.2
2017-06-16T04:33:22.378Z,42.4
2017-06-16T04:34:23.160Z,42.9
2017-06-16T04:35:23.904Z,42.2
2017-06-16T04:36:24.917Z,42.4
2017-06-16T04:37:25.811Z,42.3
2017-06-16T04:38:26.498Z,42.7
2017-06-16T04:39:27.182Z,42.5
2017-06-16T04:40:27.940Z,41.9
2017-06-16T04:41:28.679Z,42.3
2017-06-16T04:42:29.858Z,43.1
2017-06-16T04:43:30.874Z,42.1
2017-06-16T04:44:31.563Z,42.1
2017-06-16T04:45:32.297Z,42.3
2017-06-16T04:46:33.040Z,42.2
2017-06-16T04:47:33.749Z,42.2
2017-06-16T04:48:34.783Z,43.0
2017-06-16T04:49:35.482Z,42.2
2017-06-16T04:50:36.173Z,42.1
2017-06-16T04:51:36.861Z,42.7
2017-06-16T04:52:38.125Z,41.9
2017-06-16T04:53:38.818Z,42.5
2017-06-16T04:54:39.808Z,42.4
2017-06-16T04:55:40.551Z,42.4
2017-06-16T04:56:41.238Z,42.3
2017-06-16T04:57:41.944Z,41.9
2017-06-16T04:58:42.627Z,42.4
2017-06-16T04:59:43.325Z,42.0
2017-06-16T05:00:44.250Z,42.6
2017-06-16T05:01:45.047Z,42.1
2017-06-16T05:02:45.767Z,42.1
2017-06-16T05:03:46.500Z,42.3
2017-06-16T05:04:47.260Z,42.1
2017-06-16T05:05:47.936Z,42.2
2017-06-16T05:06:48.729Z,42.4
2017-06-16T05:07:49.680Z,42.8
2017-06-16T05:08:50.415Z,42.1
2017-06-16T05:09:51.240Z,42.4
2017-06-16T05:10:51.966Z,42.1
2017-06-16T05:11:52.805Z,42.2
2017-06-16T05:12:53.554Z,42.8
2017-06-16T05:13:54.602Z,42.1
2017-06-16T05:14:55.292Z,42.2
2017-06-16T05:15:55.989Z,42.2
2017-06-16T05:16:56.792Z,42.2
2017-06-16T05:17:57.477Z,42.2
2017-06-16T05:18:58.362Z,42.2
2017-06-16T05:19:59.313Z,42.1
2017-06-16T05:21:00.002Z,41.8
2017-06-16T05:22:00.744Z,42.4
2017-06-16T05:23:01.487Z,41.6
2017-06-16T05:24:02.195Z,42.1
2017-06-16T05:25:02.953Z,41.7
2017-06-16T05:26:03.893Z,42.1
2017-06-16T05:27:04.956Z,42.0
2017-06-16T05:28:05.644Z,42.3
2017-06-16T05:29:06.375Z,41.7
2017-06-16T05:30:07.073Z,41.6
2017-06-16T05:31:07.802Z,41.8
2017-06-16T05:32:08.496Z,41.9
2017-06-16T05:33:09.211Z,42.1
2017-06-16T05:34:09.942Z,42.2
2017-06-16T05:35:10.641Z,42.1
2017-06-16T05:36:11.689Z,42.1
2017-06-16T05:37:12.601Z,42.1
2017-06-16T05:38:13.333Z,42.3
2017-06-16T05:39:14.077Z,41.3
2017-06-16T05:40:14.777Z,42.3
2017-06-16T05:41:15.450Z,41.8
2017-06-16T05:42:16.225Z,41.7
2017-06-16T05:43:17.267Z,41.7
2017-06-16T05:44:18.254Z,41.7
2017-06-16T05:45:19.353Z,42.0
2017-06-16T05:46:20.038Z,41.4
2017-06-16T05:47:20.732Z,41.8
2017-06-16T05:48:21.426Z,41.4
2017-06-16T05:49:22.468Z,41.4
2017-06-16T05:50:23.182Z,41.4
2017-06-16T05:51:24.158Z,42.0
2017-06-16T05:52:24.852Z,41.5
2017-06-16T05:53:25.548Z,41.7
2017-06-16T05:54:26.243Z,41.4
2017-06-16T05:55:26.998Z,41.6
2017-06-16T05:56:27.676Z,42.0
2017-06-16T05:57:28.410Z,41.5
2017-06-16T05:58:29.105Z,42.2
2017-06-16T05:59:29.801Z,41.8
2017-06-16T06:00:30.486Z,42.1
2017-06-16T06:01:31.641Z,41.3
2017-06-16T06:02:32.320Z,42.2
2017-06-16T06:03:33.064Z,41.9
2017-06-16T06:04:33.823Z,41.4
2017-06-16T06:05:34.507Z,41.4
2017-06-16T06:06:35.249Z,41.4
2017-06-16T06:07:36.193Z,41.5
2017-06-16T06:08:36.934Z,41.8
2017-06-16T06:09:37.675Z,41.6
2017-06-16T06:10:38.418Z,41.6
2017-06-16T06:11:39.237Z,42.0
2017-06-16T06:12:39.934Z,41.4
2017-06-16T06:13:40.931Z,41.9
2017-06-16T06:14:41.621Z,41.7
2017-06-16T06:15:42.360Z,41.4
2017-06-16T06:16:43.111Z,41.6
2017-06-16T06:17:43.801Z,41.4
2017-06-16T06:18:44.487Z,41.4
2017-06-16T06:19:45.231Z,41.4
2017-06-16T06:20:46.195Z,41.4
2017-06-16T06:21:46.885Z,41.5
2017-06-16T06:22:47.625Z,41.5
2017-06-16T06:23:48.325Z,41.5
2017-06-16T06:24:49.022Z,41.6
2017-06-16T06:25:49.703Z,41.5
2017-06-16T06:26:50.946Z,41.4
2017-06-16T06:27:51.639Z,41.3
2017-06-16T06:28:52.389Z,42.1
2017-06-16T06:29:53.078Z,41.5
2017-06-16T06:30:53.833Z,41.3
2017-06-16T06:31:54.520Z,41.3
2017-06-16T06:32:55.203Z,41.5
2017-06-16T06:33:55.922Z,41.5
2017-06-16T06:34:56.630Z,41.4
2017-06-16T06:35:57.378Z,41.5
2017-06-16T06:36:58.045Z,41.7
2017-06-16T06:37:59.003Z,41.5
2017-06-16T06:38:59.679Z,41.8
2017-06-16T06:40:00.420Z,41.6
2017-06-16T06:41:01.109Z,41.9
2017-06-16T06:42:01.827Z,41.6
2017-06-16T06:43:02.560Z,41.5
2017-06-16T06:44:03.591Z,41.9
2017-06-16T06:45:04.335Z,42.0
2017-06-16T06:46:05.076Z,41.9
2017-06-16T06:47:05.767Z,41.7
2017-06-16T06:48:06.505Z,41.9
2017-06-16T06:49:07.260Z,41.3
2017-06-16T06:50:07.954Z,41.7
2017-06-16T06:51:08.994Z,41.5
2017-06-16T06:52:09.837Z,41.6
2017-06-16T06:53:10.531Z,41.5
2017-06-16T06:54:11.220Z,41.5
2017-06-16T06:55:11.971Z,41.4
2017-06-16T06:56:12.720Z,41.5
2017-06-16T06:57:13.811Z,41.1
2017-06-16T06:58:14.827Z,41.2
2017-06-16T06:59:15.557Z,41.0
2017-06-16T07:00:16.241Z,41.1
2017-06-16T07:01:16.949Z,41.0
2017-06-16T07:02:17.787Z,41.0
2017-06-16T07:03:18.798Z,41.0
2017-06-16T07:04:19.491Z,40.9
2017-06-16T07:05:20.248Z,41.1
2017-06-16T07:06:20.929Z,40.9
2017-06-16T07:07:21.782Z,40.8
2017-06-16T07:08:22.461Z,40.8
2017-06-16T07:09:23.506Z,40.8
2017-06-16T07:10:24.240Z,40.5
2017-06-16T07:11:25.679Z,40.8
2017-06-16T07:12:27.143Z,40.6
2017-06-16T07:13:27.890Z,40.5
2017-06-16T07:14:28.570Z,40.6
2017-06-16T07:15:29.567Z,40.4
2017-06-16T07:16:30.265Z,40.5
2017-06-16T07:17:31.201Z,40.5
2017-06-16T07:18:31.891Z,40.2
2017-06-16T07:19:32.619Z,40.2
2017-06-16T07:20:33.340Z,40.3
2017-06-16T07:21:34.381Z,40.2
2017-06-16T07:22:35.178Z,40.0
2017-06-16T07:23:35.905Z,40.6
2017-06-16T07:24:36.703Z,39.9
2017-06-16T07:25:37.441Z,39.7
2017-06-16T07:26:38.135Z,40.3
2017-06-16T07:27:39.137Z,40.1
2017-06-16T07:28:39.879Z,40.2
2017-06-16T07:29:40.559Z,39.9
2017-06-16T07:30:41.398Z,40.3
2017-06-16T07:31:42.106Z,40.3
2017-06-16T07:32:42.787Z,39.9
2017-06-16T07:33:43.724Z,40.4
2017-06-16T07:34:44.425Z,40.2
2017-06-16T07:35:45.173Z,40.3
2017-06-16T07:36:45.881Z,40.2
2017-06-16T07:37:46.550Z,40.2
2017-06-16T07:38:47.297Z,40.0
2017-06-16T07:39:48.329Z,39.8
2017-06-16T07:40:49.040Z,40.0
2017-06-16T07:41:49.777Z,40.0
2017-06-16T07:42:50.516Z,39.5
2017-06-16T07:43:51.259Z,39.8
2017-06-16T07:44:52.202Z,39.9
2017-06-16T07:45:52.900Z,40.0
2017-06-16T07:46:53.642Z,39.8
2017-06-16T07:47:54.329Z,39.9
2017-06-16T07:48:55.018Z,40.1
2017-06-16T07:49:55.775Z,39.7
2017-06-16T07:50:56.717Z,40.1
2017-06-16T07:51:57.482Z,39.6
2017-06-16T07:52:58.218Z,39.6
2017-06-16T07:53:58.907Z,39.8
2017-06-16T07:54:59.589Z,39.6
2017-06-16T07:56:00.274Z,39.6
2017-06-16T07:57:01.023Z,39.9
2017-06-16T07:58:01.822Z,39.5
2017-06-16T07:59:02.519Z,39.5
2017-06-16T08:00:03.252Z,39.7
2017-06-16T08:01:03.937Z,39.7
2017-06-16T08:02:04.939Z,39.7
2017-06-16T08:03:05.831Z,39.7
2017-06-16T08:04:06.531Z,39.5
2017-06-16T08:05:07.219Z,39.8
2017-06-16T08:06:07.972Z,39.6
2017-06-16T08:07:08.684Z,39.8
2017-06-16T08:08:09.850Z,39.2
2017-06-16T08:09:10.546Z,39.8
2017-06-16T08:10:11.233Z,39.2
2017-06-16T08:11:11.945Z,39.4
2017-06-16T08:12:12.619Z,39.4
2017-06-16T08:13:13.829Z,39.2
2017-06-16T08:14:14.506Z,39.2
2017-06-16T08:15:15.510Z,39.5
2017-06-16T08:16:16.207Z,39.2
2017-06-16T08:17:16.930Z,39.5
2017-06-16T08:18:17.616Z,39.3
2017-06-16T08:19:18.552Z,39.3
2017-06-16T08:20:19.310Z,39.3
2017-06-16T08:21:20.042Z,39.2
2017-06-16T08:22:20.802Z,39.2
2017-06-16T08:23:21.504Z,38.9
2017-06-16T08:24:22.178Z,39.0
2017-06-16T08:25:22.869Z,39.0
2017-06-16T08:26:23.559Z,38.8
2017-06-16T08:27:24.305Z,39.0
2017-06-16T08:28:25.046Z,39.0
2017-06-16T08:29:26.461Z,38.9
2017-06-16T08:30:27.915Z,38.8
2017-06-16T08:31:28.589Z,38.6
2017-06-16T08:32:29.343Z,38.6
2017-06-16T08:33:30.042Z,39.1
2017-06-16T08:34:30.838Z,38.9
2017-06-16T08:35:31.999Z,38.3
2017-06-16T08:36:32.757Z,38.4
2017-06-16T08:37:33.433Z,38.4
2017-06-16T08:38:34.146Z,38.1
2017-06-16T08:39:34.847Z,38.4
2017-06-16T08:40:36.026Z,38.0
2017-06-16T08:41:36.721Z,38.5
2017-06-16T08:42:37.431Z,38.4
2017-06-16T08:43:38.156Z,38.4
2017-06-16T08:44:38.848Z,38.4
2017-06-16T08:45:39.648Z,38.3
2017-06-16T08:46:40.594Z,37.8
2017-06-16T08:47:41.584Z,38.0
2017-06-16T08:48:42.445Z,38.1
2017-06-16T08:49:43.129Z,37.9
2017-06-16T08:50:43.809Z,38.0
2017-06-16T08:51:44.513Z,37.8
2017-06-16T08:52:45.525Z,38.1
2017-06-16T08:53:46.254Z,38.1
2017-06-16T08:54:46.946Z,38.1
2017-06-16T08:55:47.653Z,38.1
2017-06-16T08:56:48.352Z,38.0
2017-06-16T08:57:49.351Z,38.0
2017-06-16T08:58:50.099Z,37.7
2017-06-16T08:59:50.800Z,37.5
2017-06-16T09:00:51.489Z,38.2
2017-06-16T09:01:52.243Z,37.9
2017-06-16T09:02:53.028Z,38.0
2017-06-16T09:03:54.142Z,37.6
2017-06-16T09:04:54.828Z,37.9
2017-06-16T09:05:55.546Z,38.0
2017-06-16T09:06:56.281Z,38.1
2017-06-16T09:07:56.981Z,38.2
2017-06-16T09:08:57.979Z,37.9
2017-06-16T09:09:58.670Z,37.9
2017-06-16T09:10:59.365Z,37.7
2017-06-16T09:12:00.061Z,38.0
2017-06-16T09:13:00.762Z,38.0
2017-06-16T09:14:01.459Z,38.0
2017-06-16T09:15:02.450Z,38.1
2017-06-16T09:16:03.224Z,38.3
2017-06-16T09:17:03.968Z,38.0
2017-06-16T09:18:05.099Z,38.2
2017-06-16T09:19:05.794Z,38.0
2017-06-16T09:20:06.795Z,38.1
2017-06-16T09:21:07.797Z,38.5
2017-06-16T09:22:08.524Z,38.3
2017-06-16T09:23:09.428Z,38.4
2017-06-16T09:24:10.153Z,38.4
2017-06-16T09:25:10.877Z,38.4
2017-06-16T09:26:11.884Z,38.5
2017-06-16T09:27:12.611Z,38.4
2017-06-16T09:28:13.381Z,38.3
2017-06-16T09:29:14.053Z,38.1
2017-06-16T09:30:14.760Z,38.1
2017-06-16T09:31:15.464Z,38.1
2017-06-16T09:32:16.404Z,38.2
2017-06-16T09:33:17.283Z,38.1
2017-06-16T09:34:17.962Z,38.2
2017-06-16T09:35:18.710Z,38.1
2017-06-16T09:36:19.420Z,38.4
2017-06-16T09:37:20.458Z,38.0
2017-06-16T09:38:21.149Z,37.9
2017-06-16T09:39:21.915Z,38.0
2017-06-16T09:40:22.600Z,37.8
2017-06-16T09:41:23.301Z,37.8
2017-06-16T09:42:24.044Z,37.7
2017-06-16T09:43:25.100Z,37.5
2017-06-16T09:44:25.801Z,37.7
2017-06-16T09:45:26.494Z,37.8
2017-06-16T09:46:27.350Z,37.3
2017-06-16T09:47:28.062Z,37.5
2017-06-16T09:48:28.761Z,37.7
2017-06-16T09:49:29.763Z,37.9
2017-06-16T09:50:30.463Z,37.7
2017-06-16T09:51:31.506Z,37.9
2017-06-16T09:52:32.243Z,37.8
2017-06-16T09:53:32.948Z,37.6
2017-06-16T09:54:33.650Z,37.5
2017-06-16T09:55:34.592Z,37.4
2017-06-16T09:56:35.287Z,37.0
2017-06-16T09:57:36.058Z,37.1
2017-06-16T09:58:36.750Z,37.0
2017-06-16T09:59:37.445Z,37.1
2017-06-16T10:00:39.424Z,36.9
2017-06-16T10:01:40.588Z,37.1
2017-06-16T10:02:41.269Z,37.1
2017-06-16T10:03:41.968Z,36.8
2017-06-16T10:04:42.667Z,36.9
2017-06-16T10:05:43.410Z,36.7
2017-06-16T10:06:44.465Z,36.7
2017-06-16T10:07:45.158Z,36.3
2017-06-16T10:08:45.850Z,36.7
2017-06-16T10:09:46.539Z,36.4
2017-06-16T10:10:47.245Z,36.2
2017-06-16T10:11:47.985Z,36.1
2017-06-16T10:12:48.935Z,36.2
2017-06-16T10:13:49.619Z,35.8
2017-06-16T10:14:50.619Z,36.0
2017-06-16T10:15:51.316Z,35.9
2017-06-16T10:16:52.069Z,36.3
2017-06-16T10:17:52.812Z,36.0
2017-06-16T10:18:53.539Z,35.7
2017-06-16T10:19:54.214Z,35.7
2017-06-16T10:20:54.910Z,35.7
2017-06-16T10:21:55.652Z,35.8
2017-06-16T10:22:56.411Z,35.9
2017-06-16T10:23:57.369Z,36.1
2017-06-16T10:24:58.063Z,36.0
2017-06-16T10:25:58.765Z,35.8
2017-06-16T10:26:59.460Z,35.8
2017-06-16T10:28:00.163Z,35.8
2017-06-16T10:29:00.906Z,35.9
2017-06-16T10:30:01.879Z,35.7
2017-06-16T10:31:02.583Z,35.6
2017-06-16T10:32:03.271Z,35.8
2017-06-16T10:33:03.980Z,35.3
2017-06-16T10:34:04.709Z,35.7
2017-06-16T10:35:05.667Z,35.3
2017-06-16T10:36:06.359Z,35.5
2017-06-16T10:37:07.055Z,35.7
2017-06-16T10:38:07.758Z,35.7
2017-06-16T10:39:08.609Z,35.8
2017-06-16T10:40:09.309Z,35.5
2017-06-16T10:41:10.059Z,35.3
2017-06-16T10:42:11.049Z,35.7
2017-06-16T10:43:11.747Z,35.4
2017-06-16T10:44:12.445Z,35.7
2017-06-16T10:45:13.142Z,35.9
2017-06-16T10:46:13.838Z,35.7
2017-06-16T10:47:14.525Z,35.7
2017-06-16T10:48:15.261Z,35.6
2017-06-16T10:49:16.230Z,35.8
2017-06-16T10:50:16.990Z,34.9
2017-06-16T10:51:17.703Z,35.6
2017-06-16T10:52:18.440Z,35.8
2017-06-16T10:53:19.183Z,35.6
2017-06-16T10:54:20.119Z,35.6
2017-06-16T10:55:20.808Z,35.9
2017-06-16T10:56:21.554Z,35.4
2017-06-16T10:57:22.565Z,35.3
2017-06-16T10:58:23.463Z,35.6
2017-06-16T10:59:24.214Z,35.7
2017-06-16T11:00:25.506Z,35.6
2017-06-16T11:01:26.269Z,34.9
2017-06-16T11:02:26.974Z,35.3
2017-06-16T11:03:27.686Z,35.5
2017-06-16T11:04:28.381Z,35.6
2017-06-16T11:05:29.445Z,35.3
2017-06-16T11:06:30.117Z,35.1
2017-06-16T11:07:31.134Z,35.3
2017-06-16T11:08:31.826Z,35.3
2017-06-16T11:09:32.566Z,35.2
2017-06-16T11:10:33.762Z,34.9
2017-06-16T11:11:34.808Z,35.5
2017-06-16T11:12:35.517Z,35.5
2017-06-16T11:13:36.512Z,35.5
2017-06-16T11:14:37.230Z,35.4
2017-06-16T11:15:37.905Z,35.6
2017-06-16T11:16:38.603Z,35.5
2017-06-16T11:17:39.591Z,35.6
2017-06-16T11:18:42.965Z,35.4
2017-06-16T11:19:43.656Z,35.5
2017-06-16T11:20:44.395Z,35.6
2017-06-16T11:21:45.113Z,35.6
2017-06-16T11:22:45.889Z,35.6
2017-06-16T11:23:46.908Z,35.3
2017-06-16T11:24:47.595Z,35.3
2017-06-16T11:25:48.395Z,35.3
2017-06-16T11:26:49.095Z,35.3
2017-06-16T11:27:49.794Z,35.5
2017-06-16T11:28:50.787Z,35.2
2017-06-16T11:29:51.486Z,35.3
2017-06-16T11:30:52.227Z,35.2
2017-06-16T11:31:52.923Z,35.3
2017-06-16T11:32:53.950Z,35.4
2017-06-16T11:33:54.646Z,35.0
2017-06-16T11:34:55.351Z,35.0
2017-06-16T11:35:56.049Z,34.9
2017-06-16T11:36:56.799Z,34.7
2017-06-16T11:37:57.492Z,34.5
2017-06-16T11:38:58.226Z,34.8
2017-06-16T11:39:58.948Z,34.8
2017-06-16T11:40:59.899Z,34.6
2017-06-16T11:42:00.625Z,35.0
2017-06-16T11:43:01.284Z,34.9
2017-06-16T11:44:01.983Z,34.9
2017-06-16T11:45:02.685Z,34.9
2017-06-16T11:46:03.452Z,35.0
2017-06-16T11:47:04.430Z,34.9
2017-06-16T11:48:05.125Z,35.1
2017-06-16T11:49:05.861Z,35.0
2017-06-16T11:50:06.549Z,34.8
2017-06-16T11:51:07.311Z,34.7
2017-06-16T11:52:07.992Z,34.7
2017-06-16T11:53:08.996Z,34.7
2017-06-16T11:54:09.744Z,34.5
2017-06-16T11:55:10.489Z,34.7
2017-06-16T11:56:11.230Z,34.6
2017-06-16T11:57:11.921Z,34.8
2017-06-16T11:58:12.675Z,35.0
2017-06-16T11:59:13.775Z,35.2
2017-06-16T12:00:14.475Z,34.9
2017-06-16T12:01:15.232Z,35.1
2017-06-16T12:02:15.934Z,35.4
2017-06-16T12:03:16.620Z,35.2
2017-06-16T12:04:17.557Z,35.2
2017-06-16T12:05:18.580Z,35.3
2017-06-16T12:06:19.258Z,35.0
2017-06-16T12:07:19.945Z,35.3
2017-06-16T12:08:20.713Z,35.2
2017-06-16T12:09:21.609Z,35.3
2017-06-16T12:10:22.298Z,35.0
2017-06-16T12:11:23.356Z,35.1
2017-06-16T12:12:24.088Z,35.3
2017-06-16T12:13:24.777Z,35.0
2017-06-16T12:14:25.533Z,34.8
2017-06-16T12:15:26.273Z,34.4
2017-06-16T12:16:27.015Z,34.9
2017-06-16T12:17:28.122Z,34.6
2017-06-16T12:18:28.838Z,34.7
2017-06-16T12:19:29.519Z,34.5
2017-06-16T12:20:30.216Z,34.6
2017-06-16T12:21:30.924Z,34.7
2017-06-16T12:22:31.736Z,34.5
2017-06-16T12:23:32.650Z,34.4
2017-06-16T12:24:33.344Z,34.3
2017-06-16T12:25:34.043Z,34.1
2017-06-16T12:26:34.787Z,34.3
2017-06-16T12:27:35.655Z,34.3
2017-06-16T12:28:36.406Z,34.1
2017-06-16T12:29:37.376Z,34.2
2017-06-16T12:30:38.089Z,34.3
2017-06-16T12:31:38.797Z,34.2
2017-06-16T12:32:39.586Z,34.4
2017-06-16T12:33:40.341Z,34.3
2017-06-16T12:34:41.079Z,34.6
2017-06-16T12:35:42.190Z,34.2
2017-06-16T12:36:43.123Z,34.3
2017-06-16T12:37:43.806Z,34.3
2017-06-16T12:38:44.503Z,34.4
2017-06-16T12:39:45.203Z,34.3
2017-06-16T12:40:45.899Z,34.1
2017-06-16T12:41:46.597Z,34.0
2017-06-16T12:42:49.317Z,34.4
2017-06-16T12:43:50.004Z,34.1
2017-06-16T12:44:50.704Z,34.0
2017-06-16T12:45:51.398Z,34.3
2017-06-16T12:46:52.099Z,34.0
2017-06-16T12:47:53.149Z,33.7
2017-06-16T12:48:54.094Z,34.0
2017-06-16T12:49:55.049Z,34.1
2017-06-16T12:50:55.758Z,34.0
2017-06-16T12:51:56.440Z,34.4
2017-06-16T12:52:57.136Z,33.9
2017-06-16T12:53:57.838Z,34.3
2017-06-16T12:54:58.530Z,34.4
2017-06-16T12:55:59.249Z,33.9
2017-06-16T12:56:59.972Z,34.0
2017-06-16T12:58:00.724Z,34.0
2017-06-16T12:59:01.417Z,34.3
2017-06-16T13:00:02.117Z,34.0
2017-06-16T13:01:03.113Z,34.0
2017-06-16T13:02:03.814Z,33.9
2017-06-16T13:03:04.501Z,33.9
2017-06-16T13:04:05.236Z,33.7
2017-06-16T13:05:06.074Z,33.8
2017-06-16T13:06:06.743Z,33.7
2017-06-16T13:07:07.690Z,33.6
2017-06-16T13:08:08.393Z,33.8
2017-06-16T13:09:09.145Z,34.1
2017-06-16T13:10:10.040Z,33.4
2017-06-16T13:11:10.735Z,33.6
2017-06-16T13:12:11.425Z,33.5
2017-06-16T13:13:12.392Z,33.7
2017-06-16T13:14:13.067Z,33.4
2017-06-16T13:15:13.768Z,33.6
2017-06-16T13:16:14.507Z,34.0
2017-06-16T13:17:15.213Z,33.5
2017-06-16T13:18:15.924Z,33.1
2017-06-16T13:19:16.859Z,33.6
2017-06-16T13:20:17.662Z,33.2
2017-06-16T13:21:18.446Z,33.8
2017-06-16T13:22:19.145Z,33.5
2017-06-16T13:23:19.842Z,33.9
2017-06-16T13:24:20.544Z,33.7
2017-06-16T13:25:21.535Z,33.3
2017-06-16T13:26:22.273Z,33.5
2017-06-16T13:27:23.024Z,33.8
2017-06-16T13:28:23.765Z,33.2
2017-06-16T13:29:24.525Z,33.4